TimeMST,TemperatureF,Dew PointF,Humidity,Sea Level PressureIn,VisibilityMPH,Wind Direction,Wind SpeedMPH,Gust SpeedMPH,PrecipitationIn,Events,Conditions,WindDirDegrees,DateUTC
12:54 AM,50.0,26.1,39,29.58,10.0,SSW,10.4,-,N/A,,Clear,210,2013-04-17 07:54:00
1:54 AM,46.9,26.1,44,29.59,10.0,WSW,5.8,-,N/A,,Clear,240,2013-04-17 08:54:00
2:54 AM,48.0,26.1,42,29.57,10.0,WSW,19.6,26.5,N/A,,Clear,240,2013-04-17 09:54:00
3:54 AM,46.9,24.1,41,29.58,10.0,WSW,19.6,28.8,N/A,,Mostly Cloudy,250,2013-04-17 10:54:00
4:54 AM,44.1,19.9,38,29.61,10.0,West,13.8,-,N/A,,Mostly Cloudy,260,2013-04-17 11:54:00
5:54 AM,44.1,19.0,37,29.64,10.0,WSW,18.4,26.5,N/A,,Overcast,250,2013-04-17 12:54:00
6:54 AM,39.2,24.8,56,29.84,6.0,WNW,10.4,-,N/A,,Haze,290,2013-04-17 13:54:00
7:54 AM,39.9,27.0,60,29.72,10.0,NW,6.9,-,0.00,,Overcast,320,2013-04-17 14:54:00
8:54 AM,37.9,30.9,76,29.73,9.0,WNW,15.0,-,0.00,Snow,Light Snow,290,2013-04-17 15:54:00
9:06 AM,35.6,32.0,87,29.86,4.0,NW,11.5,-,0.00,Snow,Light Snow,310,2013-04-17 16:06:00
9:09 AM,35.6,32.0,87,29.87,1.8,NW,10.4,-,0.00,Snow,Light Snow,310,2013-04-17 16:09:00
9:17 AM,33.8,32.0,93,29.87,0.8,WNW,8.1,-,0.01,Snow,Light Snow,300,2013-04-17 16:17:00
9:29 AM,35.6,33.8,93,29.87,2.0,WNW,6.9,-,0.01,Snow,Light Snow,300,2013-04-17 16:29:00
9:36 AM,35.6,33.8,93,29.87,9.0,NW,6.9,-,0.01,,Overcast,310,2013-04-17 16:36:00
9:50 AM,37.4,33.8,87,29.87,10.0,WNW,8.1,-,0.01,,Overcast,300,2013-04-17 16:50:00
9:54 AM,37.0,33.1,86,29.75,10.0,WNW,8.1,-,0.01,Snow,Light Snow,300,2013-04-17 16:54:00
10:05 AM,35.6,33.8,93,29.88,4.0,WNW,8.1,-,0.01,Snow,Light Snow,300,2013-04-17 17:05:00
10:10 AM,35.6,32.0,87,29.88,1.8,West,8.1,-,0.02,Snow,Light Snow,280,2013-04-17 17:10:00
10:21 AM,35.6,32.0,87,29.88,3.0,West,6.9,-,0.02,Snow,Light Snow,270,2013-04-17 17:21:00
10:54 AM,39.0,34.0,82,29.76,10.0,North,-9999.0,-,N/A,,Overcast,0,2013-04-17 17:54:00
11:03 AM,39.2,33.8,81,29.87,10.0,North,-9999.0,-,0.00,Rain,Light Rain,0,2013-04-17 18:03:00
11:14 AM,35.6,32.0,87,29.88,1.5,WNW,21.9,31.1,0.01,Snow,Light Snow,290,2013-04-17 18:14:00
11:19 AM,33.8,30.2,87,29.88,0.5,WNW,20.7,31.1,0.02,Fog-Snow,Snow,300,2013-04-17 18:19:00
11:26 AM,37.4,33.8,87,29.89,1.0,WNW,18.4,-,0.02,Snow,Light Snow,300,2013-04-17 18:26:00
11:29 AM,37.4,33.8,87,29.89,4.0,WNW,16.1,26.5,0.02,Snow,Light Snow,300,2013-04-17 18:29:00
11:46 AM,37.4,33.8,87,29.88,9.0,West,25.3,28.8,0.02,,Overcast,270,2013-04-17 18:46:00
11:54 AM,36.0,33.1,89,29.80,2.5,West,25.3,34.5,0.02,Snow,Light Snow,280,2013-04-17 18:54:00
11:56 AM,35.6,32.0,87,29.89,1.8,West,24.2,34.5,0.00,Snow,Light Snow,280,2013-04-17 18:56:00
11:58 AM,35.6,32.0,87,29.89,1.0,West,20.7,34.5,0.00,Snow,Light Snow,270,2013-04-17 18:58:00
12:12 PM,35.6,32.0,87,29.88,2.0,SW,13.8,21.9,0.00,Snow,Light Snow,230,2013-04-17 19:12:00
12:15 PM,35.6,32.0,87,29.88,6.0,SW,17.3,23.0,0.00,Snow,Light Snow,230,2013-04-17 19:15:00
12:24 PM,37.4,30.2,75,29.87,9.0,WSW,15.0,26.5,0.00,,Overcast,240,2013-04-17 19:24:00
12:48 PM,35.6,33.8,93,29.89,1.8,WNW,25.3,36.8,0.00,Snow,Light Snow,290,2013-04-17 19:48:00
12:54 PM,35.1,33.1,92,29.81,1.0,WNW,23.0,32.2,0.00,Snow,Light Snow,290,2013-04-17 19:54:00
1:32 PM,33.8,32.0,93,29.90,4.0,SW,13.8,-,0.02,Snow,Light Snow,230,2013-04-17 20:32:00
1:54 PM,36.0,33.1,89,29.83,7.0,WSW,17.3,-,0.02,Snow,Light Snow,240,2013-04-17 20:54:00
2:14 PM,37.4,33.8,87,29.89,9.0,SW,12.7,-,0.00,,Overcast,220,2013-04-17 21:14:00
2:54 PM,39.0,32.0,76,29.81,10.0,WSW,26.5,32.2,0.00,,Overcast,240,2013-04-17 21:54:00
3:54 PM,39.9,30.9,70,29.82,10.0,WSW,16.1,-,0.00,,Overcast,240,2013-04-17 22:54:00
4:54 PM,41.0,30.0,65,29.84,10.0,SW,17.3,-,N/A,,Overcast,230,2013-04-17 23:54:00
5:54 PM,42.1,26.1,53,29.85,10.0,WSW,9.2,-,0.00,,Overcast,250,2013-04-18 00:54:00
6:54 PM,39.0,25.0,57,29.91,10.0,WSW,4.6,-,0.00,,Overcast,240,2013-04-18 01:54:00
7:54 PM,37.0,27.0,67,29.94,10.0,WSW,4.6,-,N/A,,Scattered Clouds,240,2013-04-18 02:54:00
8:54 PM,33.8,26.6,75,30.02,10.0,WSW,11.5,-,N/A,,Partly Cloudy,250,2013-04-18 03:54:00
9:54 PM,35.1,19.9,54,30.01,10.0,NW,11.5,-,N/A,,Partly Cloudy,310,2013-04-18 04:54:00
10:54 PM,30.2,23.0,75,30.05,10.0,West,5.8,-,N/A,,Mostly Cloudy,280,2013-04-18 05:54:00
11:54 PM,32.0,21.9,66,30.05,10.0,Calm,Calm,-,N/A,,Partly Cloudy,0,2013-04-18 06:54:00